Time;durP1;ratioP1;P1;durP2;ratioP2;P2;SDS_P1;SDS_P2;PMS_P1;PMS_P2;Temp;Humidity;BMP_temperature;BMP_pressure;BME280_temperature;BME280_humidity;BME280_pressure;Samples;Min_cycle;Max_cycle;Signal;HPM_P1;HPM_P2
2023/04/03 00:00:12;;;;;;;7.90;4.88;;;307.40;2304.00;;;;;;5076621;28;20477;-71
2023/04/03 00:02:40;;;;;;;9.40;5.93;;;307.40;2304.00;;;;;;5076715;28;20020;-76
2023/04/03 00:05:06;;;;;;;8.60;5.88;;;307.30;2304.00;;;;;;5077105;28;20358;-72
2023/04/03 00:07:32;;;;;;;7.63;5.97;;;307.30;2304.00;;;;;;5076324;28;20016;-76
2023/04/03 00:09:58;;;;;;;8.40;5.38;;;307.30;2304.00;;;;;;5076340;28;20386;-74
2023/04/03 00:12:23;;;;;;;9.07;5.78;;;307.40;2304.00;;;;;;5076478;28;20027;-79
2023/04/03 00:14:49;;;;;;;9.30;6.43;;;307.50;2304.00;;;;;;5076433;28;20434;-73
2023/04/03 00:17:15;;;;;;;9.07;6.18;;;307.50;2304.00;;;;;;5076426;28;20054;-73
2023/04/03 00:19:40;;;;;;;9.23;5.85;;;307.60;2304.00;;;;;;5076308;28;20093;-71
2023/04/03 00:22:06;;;;;;;8.43;5.50;;;307.50;2304.00;;;;;;5077175;28;20363;-71
2023/04/03 00:24:32;;;;;;;8.60;5.70;;;307.40;2304.00;;;;;;5081774;28;20099;-73
2023/04/03 00:26:57;;;;;;;9.02;6.38;;;307.40;2304.00;;;;;;5079299;28;20078;-76
2023/04/03 00:29:23;;;;;;;11.23;7.70;;;307.40;2304.00;;;;;;5075972;28;20025;-80
2023/04/03 00:31:49;;;;;;;12.75;9.15;;;307.50;2304.00;;;;;;5076184;28;20539;-78
2023/04/03 00:34:14;;;;;;;14.20;9.95;;;307.60;2304.00;;;;;;5075793;28;20035;-71
2023/04/03 00:36:40;;;;;;;11.00;8.13;;;307.40;2304.00;;;;;;5075994;28;20024;-71
2023/04/03 00:39:06;;;;;;;13.15;9.10;;;307.40;2304.00;;;;;;5075372;28;20067;-72
2023/04/03 00:41:32;;;;;;;11.05;7.85;;;307.30;2304.00;;;;;;5074259;28;20033;-71
2023/04/03 00:43:57;;;;;;;12.57;7.47;;;307.40;2304.00;;;;;;5062473;28;20021;-73
2023/04/03 00:46:23;;;;;;;17.55;8.80;;;307.40;2304.00;;;;;;5054937;28;20052;-70
2023/04/03 00:48:50;;;;;;;20.33;9.65;;;307.30;2304.00;;;;;;5069092;28;20497;-70
2023/04/03 00:51:24;;;;;;;12.00;9.48;;;307.20;2304.00;;;;;;5057599;28;20024;-71
2023/04/03 00:54:00;;;;;;;10.68;8.75;;;307.20;2304.00;;;;;;5057420;28;20116;-79
2023/04/03 00:56:28;;;;;;;11.43;7.75;;;307.20;2304.00;;;;;;5054391;28;20025;-71
2023/04/03 00:59:03;;;;;;;13.77;8.60;;;307.20;2304.00;;;;;;5054317;28;20025;-71
2023/04/03 01:01:30;;;;;;;10.85;8.80;;;282.50;2278.40;;;;;;5054370;28;20068;-79
2023/04/03 01:03:58;;;;;;;14.38;10.10;;;282.50;2278.40;;;;;;5057271;28;20013;-74
2023/04/03 01:06:30;;;;;;;14.18;8.70;;;282.50;2278.40;;;;;;5060063;28;20021;-71
2023/04/03 01:08:56;;;;;;;11.98;8.98;;;282.50;2278.40;;;;;;5054302;28;20104;-71
2023/04/03 01:11:22;;;;;;;12.05;8.02;;;307.20;2304.00;;;;;;5058263;28;20481;-72
2023/04/03 01:13:49;;;;;;;14.20;7.80;;;282.50;2278.40;;;;;;5063131;28;20052;-70
2023/04/03 01:16:15;;;;;;;11.30;6.88;;;282.40;2278.40;;;;;;5057257;28;20108;-73
2023/04/03 01:18:42;;;;;;;10.88;6.90;;;282.40;2278.40;;;;;;5057951;28;20025;-72
2023/04/03 01:21:34;;;;;;;8.57;6.63;;;282.40;2278.40;;;;;;5055564;28;20033;-71
2023/04/03 01:24:18;;;;;;;10.57;6.80;;;282.40;2278.40;;;;;;5054138;28;20060;-71
2023/04/03 01:26:44;;;;;;;11.15;6.50;;;282.40;2278.40;;;;;;5054379;28;20017;-76
2023/04/03 01:29:11;;;;;;;11.23;7.88;;;282.40;2278.40;;;;;;5054019;28;20101;-71
2023/04/03 01:31:55;;;;;;;10.57;6.85;;;282.40;2278.40;;;;;;5053915;28;20158;-71
2023/04/03 01:34:21;;;;;;;11.82;7.75;;;282.40;2278.40;;;;;;5053883;28;20103;-73
2023/04/03 01:36:47;;;;;;;9.75;7.38;;;282.50;2278.40;;;;;;5053913;28;20017;-73
2023/04/03 01:39:13;;;;;;;10.93;6.97;;;282.50;2278.40;;;;;;5062135;28;20078;-74
2023/04/03 01:41:38;;;;;;;11.23;6.75;;;282.40;2278.40;;;;;;5053812;28;20056;-70
2023/04/03 01:44:04;;;;;;;10.07;7.80;;;282.40;2278.40;;;;;;5060858;28;20024;-74
2023/04/03 01:46:30;;;;;;;10.27;7.72;;;282.40;2278.40;;;;;;5073996;28;20031;-71
2023/04/03 01:48:56;;;;;;;11.50;7.10;;;282.40;2278.40;;;;;;5060363;28;20478;-74
2023/04/03 01:51:21;;;;;;;11.88;6.80;;;282.40;2278.40;;;;;;5056023;28;20033;-73
2023/04/03 01:53:47;;;;;;;11.52;7.28;;;282.40;2278.40;;;;;;5053429;28;20025;-70
2023/04/03 01:56:13;;;;;;;10.63;7.63;;;282.40;2278.40;;;;;;5055956;28;20529;-72
2023/04/03 01:58:38;;;;;;;;;;;282.40;2278.40;;;;;;5059094;28;20424;-74
2023/04/03 02:01:05;;;;;;;11.43;7.30;;;282.40;2278.40;;;;;;5058630;28;19919;-70
2023/04/03 02:03:31;;;;;;;14.93;7.40;;;282.50;2278.40;;;;;;5053107;28;20021;-71
2023/04/03 02:05:57;;;;;;;11.80;7.30;;;282.40;2278.40;;;;;;5055715;28;20028;-71
2023/04/03 02:08:22;;;;;;;12.35;7.50;;;282.40;2278.40;;;;;;5054144;28;20374;-78
2023/04/03 02:10:49;;;;;;;15.18;8.18;;;282.40;2278.40;;;;;;5058008;28;20021;-71
2023/04/03 02:13:16;;;;;;;11.77;8.18;;;282.40;2278.40;;;;;;5053025;28;20075;-79
2023/04/03 02:15:41;;;;;;;14.30;8.50;;;282.40;2278.40;;;;;;5053729;28;20024;-76
2023/04/03 02:18:08;;;;;;;13.35;9.43;;;282.40;2278.40;;;;;;5057625;28;20036;-78
2023/04/03 02:20:33;;;;;;;18.67;9.40;;;282.30;2278.40;;;;;;5058464;28;20044;-71
2023/04/03 02:23:00;;;;;;;14.43;9.95;;;282.20;2278.40;;;;;;5055484;28;20025;-71
2023/04/03 02:25:25;;;;;;;13.15;8.93;;;282.10;2278.40;;;;;;5056106;28;20396;-79
2023/04/03 02:27:51;;;;;;;15.52;9.38;;;282.00;2278.40;;;;;;5053115;28;20025;-71
2023/04/03 02:30:17;;;;;;;18.85;12.30;;;281.90;2278.40;;;;;;5052997;28;20136;-71
2023/04/03 02:32:44;;;;;;;16.90;10.75;;;282.00;2278.40;;;;;;5052928;28;20017;-72
2023/04/03 02:35:10;;;;;;;18.92;11.05;;;282.00;2278.40;;;;;;5052951;28;20025;-71
2023/04/03 02:37:36;;;;;;;17.77;11.75;;;281.90;2278.40;;;;;;5052733;28;20013;-71
2023/04/03 02:40:03;;;;;;;13.32;9.52;;;282.00;2278.40;;;;;;5058588;28;20035;-71
2023/04/03 02:42:29;;;;;;;18.50;10.20;;;281.90;2278.40;;;;;;5065666;28;20482;-71
2023/04/03 02:44:55;;;;;;;17.10;9.68;;;281.80;2278.40;;;;;;5052544;28;20029;-72
2023/04/03 02:47:21;;;;;;;18.38;11.55;;;281.80;2278.40;;;;;;5054900;28;20359;-70
2023/04/03 02:49:46;;;;;;;16.38;9.65;;;281.80;2278.40;;;;;;5056951;28;20036;-71
2023/04/03 02:52:13;;;;;;;24.50;10.95;;;281.80;2278.40;;;;;;5052294;28;20068;-71
2023/04/03 02:54:39;;;;;;;18.15;9.98;;;281.80;2278.40;;;;;;5058107;28;20030;-73
2023/04/03 02:57:05;;;;;;;20.55;10.95;;;281.70;2278.40;;;;;;5052654;28;20029;-72
2023/04/03 02:59:31;;;;;;;22.23;10.55;;;281.60;2278.40;;;;;;5052427;28;20078;-71
2023/04/03 03:01:56;;;;;;;17.83;10.13;;;281.60;2278.40;;;;;;5054945;28;20424;-71
2023/04/03 03:04:22;;;;;;;;;;;256.90;2252.80;;;;;;5062959;28;20450;-74
2023/04/03 03:06:48;;;;;;;17.52;7.70;;;256.90;2252.80;;;;;;5066991;28;19904;-71
2023/04/03 03:09:13;;;;;;;;;;;256.90;2252.80;;;;;;5070523;28;20143;-71
2023/04/03 03:11:39;;;;;;;9.63;5.07;;;256.80;2252.80;;;;;;5061201;28;19951;-72
2023/04/03 03:14:05;;;;;;;;;;;256.70;2252.80;;;;;;5055545;28;20099;-71
2023/04/03 03:16:31;;;;;;;10.32;6.25;;;256.70;2252.80;;;;;;5059239;28;19971;-73
2023/04/03 03:18:56;;;;;;;;;;;256.60;2252.80;;;;;;5057005;28;20032;-71
2023/04/03 03:21:22;;;;;;;11.52;6.60;;;256.70;2252.80;;;;;;5057414;28;20328;-71
2023/04/03 03:23:47;;;;;;;13.23;8.45;;;256.60;2252.80;;;;;;5060198;28;20017;-72
2023/04/03 03:26:13;;;;;;;;;;;256.70;2252.80;;;;;;5057581;28;20074;-71
2023/04/03 03:28:40;;;;;;;11.20;6.78;;;256.70;2252.80;;;;;;5051404;28;20150;-71
2023/04/03 03:31:07;;;;;;;11.80;6.47;;;256.60;2252.80;;;;;;5054177;28;20104;-71
2023/04/03 03:33:32;;;;;;;10.00;5.70;;;256.50;2252.80;;;;;;5054279;28;20021;-71
2023/04/03 03:35:58;;;;;;;9.32;5.38;;;256.50;2252.80;;;;;;5057035;28;20100;-71
2023/04/03 03:38:24;;;;;;;;;;;256.40;2252.80;;;;;;5054423;28;20082;-70
2023/04/03 03:40:51;;;;;;;6.65;4.45;;;256.50;2252.80;;;;;;5057210;28;19917;-71
2023/04/03 03:43:17;;;;;;;7.30;4.22;;;256.50;2252.80;;;;;;5061866;28;20512;-71
2023/04/03 03:45:43;;;;;;;10.57;4.15;;;256.40;2252.80;;;;;;5054904;28;20029;-75
2023/04/03 03:48:09;;;;;;;9.32;4.43;;;256.50;2252.80;;;;;;5059394;28;20110;-71
2023/04/03 03:50:35;;;;;;;7.28;3.50;;;256.50;2252.80;;;;;;5053886;28;20497;-76
2023/04/03 03:53:00;;;;;;;8.23;4.68;;;256.50;2252.80;;;;;;5060085;28;20052;-71
2023/04/03 03:55:26;;;;;;;;;;;256.40;2252.80;;;;;;5053417;28;20026;-71
2023/04/03 03:57:51;;;;;;;6.43;4.20;;;256.40;2252.80;;;;;;5055515;28;20337;-71
2023/04/03 04:00:17;;;;;;;;;;;256.30;2252.80;;;;;;5057335;28;20374;-72
2023/04/03 04:02:43;;;;;;;9.32;4.18;;;256.40;2252.80;;;;;;5062170;28;19927;-71
2023/04/03 04:05:09;;;;;;;;;;;256.30;2252.80;;;;;;5051713;28;20025;-72
2023/04/03 04:07:35;;;;;;;8.20;4.50;;;256.40;2252.80;;;;;;5056853;28;19912;-71
2023/04/03 04:10:00;;;;;;;;;;;256.20;2252.80;;;;;;5051550;28;20024;-71
2023/04/03 04:12:26;;;;;;;8.57;5.07;;;256.20;2252.80;;;;;;5054182;28;20365;-73
2023/04/03 04:14:52;;;;;;;7.45;3.95;;;256.20;2252.80;;;;;;5067832;28;20024;-78
2023/04/03 04:17:17;;;;;;;;;;;256.20;2252.80;;;;;;5058123;28;20025;-72
2023/04/03 04:19:43;;;;;;;7.00;4.30;;;256.20;2252.80;;;;;;5068391;28;19917;-75
2023/04/03 04:22:09;;;;;;;7.80;4.60;;;256.20;2252.80;;;;;;5054726;28;20466;-76
2023/04/03 04:24:34;;;;;;;6.72;4.57;;;256.20;2252.80;;;;;;5057352;28;20013;-77
2023/04/03 04:27:00;;;;;;;;;;;256.20;2252.80;;;;;;5068449;28;20037;-72
2023/04/03 04:29:26;;;;;;;7.60;4.90;;;256.20;2252.80;;;;;;5055303;28;19913;-71
2023/04/03 04:31:51;;;;;;;7.15;4.50;;;256.10;2252.80;;;;;;5059962;28;20020;-71
2023/04/03 04:34:17;;;;;;;;;;;256.10;2252.80;;;;;;5057829;28;20024;-79
2023/04/03 04:36:43;;;;;;;9.32;5.10;;;256.00;2252.80;;;;;;5059403;28;20000;-72
2023/04/03 04:39:08;;;;;;;7.90;5.32;;;231.30;2252.80;;;;;;5060391;28;20057;-71
2023/04/03 04:41:34;;;;;;;8.65;5.97;;;231.20;2252.80;;;;;;5073174;28;20055;-69
2023/04/03 04:44:00;;;;;;;10.43;5.45;;;231.20;2252.80;;;;;;5056635;28;20482;-68
2023/04/03 04:46:26;;;;;;;7.65;4.80;;;231.20;2252.80;;;;;;5056883;28;20025;-69
2023/04/03 04:48:52;;;;;;;14.85;5.65;;;231.10;2252.80;;;;;;5056476;28;20044;-69
2023/04/03 04:51:17;;;;;;;7.28;4.70;;;231.20;2252.80;;;;;;5056788;28;20382;-71
2023/04/03 04:53:43;;;;;;;;;;;231.20;2252.80;;;;;;5059942;28;20092;-78
2023/04/03 04:56:09;;;;;;;7.80;4.68;;;231.20;2252.80;;;;;;5053881;28;20424;-71
2023/04/03 04:58:35;;;;;;;8.82;4.50;;;231.20;2252.80;;;;;;5059431;28;20017;-71
2023/04/03 05:01:05;;;;;;;8.23;4.45;;;231.20;2252.80;;;;;;5054014;28;20041;-74
2023/04/03 05:03:31;;;;;;;8.18;4.88;;;231.20;2252.80;;;;;;5056953;28;20650;-70
2023/04/03 05:05:58;;;;;;;8.38;4.90;;;231.10;2252.80;;;;;;5073719;28;20032;-71
2023/04/03 05:08:23;;;;;;;11.80;5.05;;;231.10;2252.80;;;;;;5074471;28;20021;-68
2023/04/03 05:10:49;;;;;;;5.57;3.90;;;231.10;2252.80;;;;;;5074750;28;20359;-70
2023/04/03 05:13:15;;;;;;;6.35;4.13;;;231.10;2252.80;;;;;;5074400;28;20024;-71
2023/04/03 05:15:40;;;;;;;;;;;231.10;2252.80;;;;;;5074565;28;20465;-70
2023/04/03 05:18:06;;;;;;;6.80;4.03;;;231.10;2252.80;;;;;;5074115;28;19916;-70
2023/04/03 05:20:32;;;;;;;;;;;231.00;2252.80;;;;;;5074570;28;20032;-76
2023/04/03 05:22:58;;;;;;;8.03;3.63;;;231.00;2252.80;;;;;;5074441;28;19904;-72
2023/04/03 05:25:24;;;;;;;8.38;4.35;;;230.90;2252.80;;;;;;5074487;28;20024;-71
2023/04/03 05:27:50;;;;;;;6.90;4.72;;;230.90;2252.80;;;;;;5073774;28;20029;-71
2023/04/03 05:30:16;;;;;;;6.30;4.07;;;231.00;2252.80;;;;;;5074103;28;20039;-71
2023/04/03 05:32:42;;;;;;;12.63;5.28;;;230.90;2252.80;;;;;;5074491;28;20013;-71
2023/04/03 05:35:08;;;;;;;11.40;4.63;;;231.00;2252.80;;;;;;5069066;28;20551;-71
2023/04/03 05:37:34;;;;;;;7.88;4.47;;;231.00;2252.80;;;;;;5073850;28;20470;-72
2023/04/03 05:40:00;;;;;;;11.25;4.88;;;230.90;2252.80;;;;;;5073613;28;20066;-75
2023/04/03 05:42:26;;;;;;;8.85;4.60;;;231.00;2252.80;;;;;;5073751;28;20063;-71
2023/04/03 05:44:52;;;;;;;7.05;4.63;;;230.90;2252.80;;;;;;5073613;28;20462;-71
2023/04/03 05:47:18;;;;;;;;;;;230.90;2252.80;;;;;;5073717;28;20477;-70
2023/04/03 05:49:45;;;;;;;6.22;4.00;;;230.90;2252.80;;;;;;5073875;28;19916;-73
2023/04/03 05:52:36;;;;;;;6.53;4.38;;;230.90;2252.80;;;;;;5073590;28;20028;-72
2023/04/03 05:55:02;;;;;;;5.63;3.35;;;230.90;2252.80;;;;;;5065537;28;20024;-72
2023/04/03 05:57:28;;;;;;;5.07;3.20;;;230.90;2252.80;;;;;;5073384;28;20021;-70
2023/04/03 05:59:54;;;;;;;5.10;3.13;;;230.90;2252.80;;;;;;5073622;28;20112;-70
2023/04/03 06:02:23;;;;;;;;;;;230.90;2252.80;;;;;;5073724;28;20063;-70
2023/04/03 06:04:50;;;;;;;5.75;3.72;;;230.90;2252.80;;;;;;5073079;28;19927;-72
2023/04/03 06:07:22;;;;;;;5.93;3.60;;;230.80;2252.80;;;;;;5073442;28;20016;-70
2023/04/03 06:09:49;;;;;;;5.47;3.22;;;230.90;2252.80;;;;;;5068642;28;20020;-72
2023/04/03 06:12:15;;;;;;;5.57;3.30;;;230.90;2252.80;;;;;;5073157;28;20020;-71
2023/04/03 06:14:41;;;;;;;5.13;3.10;;;230.90;2252.80;;;;;;5073104;28;20016;-71
2023/04/03 06:17:08;;;;;;;5.65;3.28;;;230.90;2252.80;;;;;;5073001;28;20021;-71
2023/04/03 06:19:33;;;;;;;4.80;2.90;;;230.90;2252.80;;;;;;5073054;28;20477;-70
2023/04/03 06:22:00;;;;;;;5.25;3.28;;;230.90;2252.80;;;;;;5073155;28;20036;-77
2023/04/03 06:24:26;;;;;;;5.68;3.47;;;231.00;2252.80;;;;;;5073015;28;20048;-70
2023/04/03 06:26:52;;;;;;;7.57;3.15;;;231.00;2252.80;;;;;;5066682;28;20024;-71
2023/04/03 06:29:19;;;;;;;4.65;3.15;;;231.00;2252.80;;;;;;5070993;28;20049;-70
2023/04/03 06:31:46;;;;;;;5.90;3.10;;;231.00;2252.80;;;;;;5073038;28;20027;-72
2023/04/03 06:34:12;;;;;;;6.13;3.30;;;231.00;2252.80;;;;;;5071346;28;20051;-74
2023/04/03 06:36:38;;;;;;;7.25;3.55;;;231.00;2252.80;;;;;;5073039;28;20021;-70
2023/04/03 06:39:05;;;;;;;5.90;3.40;;;231.00;2252.80;;;;;;5066040;28;20035;-71
2023/04/03 06:41:31;;;;;;;4.88;2.67;;;231.00;2252.80;;;;;;5072813;28;20035;-71
2023/04/03 06:43:57;;;;;;;5.97;3.42;;;231.10;2252.80;;;;;;5072449;28;20020;-70
2023/04/03 06:46:24;;;;;;;4.90;3.10;;;231.10;2252.80;;;;;;5072704;28;20523;-71
2023/04/03 06:48:51;;;;;;;8.18;3.42;;;231.10;2252.80;;;;;;5071390;28;20378;-71
2023/04/03 06:51:22;;;;;;;6.18;3.30;;;231.10;2252.80;;;;;;5072796;28;20028;-72
2023/04/03 06:53:48;;;;;;;9.90;3.65;;;231.20;2252.80;;;;;;5072786;28;20017;-71
2023/04/03 06:56:15;;;;;;;6.10;3.60;;;231.10;2252.80;;;;;;5072644;28;20032;-73
2023/04/03 06:58:41;;;;;;;13.55;3.05;;;231.10;2252.80;;;;;;5072605;28;20465;-72
2023/04/03 07:01:09;;;;;;;6.30;2.67;;;231.20;2252.80;;;;;;5072520;28;20032;-73
2023/04/03 07:03:36;;;;;;;5.07;2.80;;;231.20;2252.80;;;;;;5072629;28;20013;-71
2023/04/03 07:06:02;;;;;;;5.22;3.17;;;231.20;2252.80;;;;;;5072661;28;20087;-71
2023/04/03 07:08:28;;;;;;;8.27;3.78;;;231.20;2252.80;;;;;;5072663;28;20037;-70
2023/04/03 07:10:54;;;;;;;6.40;3.25;;;231.20;2252.80;;;;;;5072394;28;20063;-72
2023/04/03 07:13:20;;;;;;;5.45;2.92;;;231.20;2252.80;;;;;;5072578;28;20043;-71
2023/04/03 07:15:46;;;;;;;;;;;231.20;2252.80;;;;;;5073033;28;20079;-71
2023/04/03 07:18:11;;;;;;;6.68;3.40;;;231.20;2252.80;;;;;;5072147;28;19912;-70
2023/04/03 07:20:38;;;;;;;8.90;4.30;;;231.20;2252.80;;;;;;5072089;28;20126;-72
2023/04/03 07:23:04;;;;;;;11.48;4.53;;;231.30;2252.80;;;;;;5072817;28;20158;-71
2023/04/03 07:25:31;;;;;;;9.65;4.85;;;256.00;2252.80;;;;;;5073863;28;20048;-71
2023/04/03 07:27:57;;;;;;;7.90;3.72;;;256.00;2252.80;;;;;;5073856;28;20017;-70
2023/04/03 07:30:23;;;;;;;14.82;6.18;;;256.00;2252.80;;;;;;5072531;28;20024;-72
2023/04/03 07:32:49;;;;;;;;;;;256.10;2252.80;;;;;;5072991;28;20047;-72
2023/04/03 07:35:15;;;;;;;5.03;3.05;;;256.10;2252.80;;;;;;5072129;28;19915;-72
2023/04/03 07:37:41;;;;;;;7.47;3.20;;;256.10;2252.80;;;;;;5071770;28;20029;-70
2023/04/03 07:40:08;;;;;;;5.03;3.05;;;256.10;2252.80;;;;;;5071512;28;20082;-70
2023/04/03 07:42:34;;;;;;;10.10;3.05;;;256.10;2252.80;;;;;;5072303;28;20028;-72
2023/04/03 07:45:01;;;;;;;7.53;3.30;;;256.20;2252.80;;;;;;5072084;28;20053;-70
2023/04/03 07:47:27;;;;;;;5.80;3.20;;;256.30;2252.80;;;;;;5071795;28;20028;-70
2023/04/03 07:49:53;;;;;;;8.95;4.40;;;256.40;2252.80;;;;;;5069753;28;20367;-72
2023/04/03 07:52:18;;;;;;;;;;;256.40;2252.80;;;;;;5071198;28;20031;-71
2023/04/03 07:54:44;;;;;;;9.75;3.28;;;256.60;2252.80;;;;;;5075739;28;19911;-70
2023/04/03 07:57:10;;;;;;;5.80;3.55;;;256.50;2252.80;;;;;;5074798;28;20032;-71
2023/04/03 07:59:36;;;;;;;6.50;3.75;;;256.50;2252.80;;;;;;5076012;28;20497;-70
2023/04/03 08:02:04;;;;;;;7.30;3.95;;;256.60;2252.80;;;;;;5072496;28;20060;-70
2023/04/03 08:04:30;;;;;;;5.47;3.40;;;256.60;2252.80;;;;;;5072769;28;20031;-71
2023/04/03 08:06:56;;;;;;;5.47;3.03;;;256.70;2252.80;;;;;;5072755;28;20021;-70
2023/04/03 08:09:21;;;;;;;5.03;2.90;;;256.70;2252.80;;;;;;5076070;28;20029;-69
2023/04/03 08:11:47;;;;;;;6.78;3.58;;;256.60;2252.80;;;;;;5075433;28;20527;-69
2023/04/03 08:14:16;;;;;;;;;;;256.70;2252.80;;;;;;5076173;28;20150;-74
2023/04/03 08:16:43;;;;;;;6.32;3.28;;;256.90;2252.80;;;;;;5075086;28;19905;-70
2023/04/03 08:19:10;;;;;;;9.90;3.92;;;256.90;2252.80;;;;;;5075422;28;20073;-69
2023/04/03 08:21:36;;;;;;;5.00;3.40;;;256.80;2252.80;;;;;;5072934;28;20025;-70
2023/04/03 08:24:03;;;;;;;5.00;3.08;;;256.70;2252.80;;;;;;5075283;28;20489;-72
2023/04/03 08:26:28;;;;;;;4.53;2.60;;;256.80;2252.80;;;;;;5075284;28;20020;-69
2023/04/03 08:28:55;;;;;;;5.38;3.00;;;256.80;2252.80;;;;;;5075100;28;20541;-70
2023/04/03 08:31:21;;;;;;;6.18;3.30;;;256.80;2252.80;;;;;;5075171;28;20051;-69
2023/04/03 08:33:47;;;;;;;4.97;3.20;;;256.80;2252.80;;;;;;5075511;28;20033;-74
2023/04/03 08:36:21;;;;;;;7.75;4.90;;;281.60;2278.40;;;;;;5074059;28;20481;-70
2023/04/03 08:38:48;;;;;;;5.63;3.13;;;281.70;2278.40;;;;;;5074925;28;20032;-71
2023/04/03 08:41:35;;;;;;;6.38;3.67;;;281.70;2278.40;;;;;;5074318;28;20040;-73
2023/04/03 08:44:19;;;;;;;5.00;3.13;;;281.70;2278.40;;;;;;5072021;28;20024;-68
2023/04/03 08:47:04;;;;;;;5.72;3.60;;;281.70;2278.40;;;;;;5072332;28;20178;-71
2023/04/03 08:49:48;;;;;;;8.20;3.97;;;281.90;2278.40;;;;;;5073028;28;20406;-70
2023/04/03 08:52:36;;;;;;;5.65;3.20;;;281.80;2278.40;;;;;;5074914;28;20055;-69
2023/04/03 08:55:22;;;;;;;4.70;3.03;;;281.90;2278.40;;;;;;5067327;28;20024;-73
2023/04/03 08:57:50;;;;;;;7.10;3.60;;;282.00;2278.40;;;;;;5066932;28;20009;-71
2023/04/03 09:00:22;;;;;;;10.13;3.55;;;281.90;2278.40;;;;;;5074663;28;20281;-69
2023/04/03 09:02:50;;;;;;;8.27;4.28;;;282.00;2278.40;;;;;;5074050;28;20029;-71
2023/04/03 09:05:17;;;;;;;5.68;3.15;;;282.20;2278.40;;;;;;5074256;28;20049;-69
2023/04/03 09:07:49;;;;;;;7.40;3.40;;;282.10;2278.40;;;;;;5074636;28;20496;-70
2023/04/03 09:10:19;;;;;;;6.22;3.88;;;282.20;2278.40;;;;;;5072475;28;20486;-70
2023/04/03 09:12:55;;;;;;;4.70;3.08;;;282.20;2278.40;;;;;;5074940;28;20029;-70
2023/04/03 09:15:22;;;;;;;4.03;2.78;;;282.40;2278.40;;;;;;5074316;28;20024;-70
2023/04/03 09:18:25;;;;;;;4.55;3.00;;;282.40;2278.40;;;;;;5074476;28;20039;-69
2023/04/03 09:20:54;;;;;;;5.20;3.40;;;282.50;2278.40;;;;;;5074011;28;20036;-71
2023/04/03 09:23:26;;;;;;;7.10;3.25;;;307.20;2304.00;;;;;;5074712;28;20032;-70
2023/04/03 09:26:00;;;;;;;6.03;3.08;;;307.30;2304.00;;;;;;5069090;28;20033;-71
2023/04/03 09:28:27;;;;;;;9.18;3.30;;;307.30;2304.00;;;;;;5088391;28;20031;-70
2023/04/03 09:30:53;;;;;;;4.13;2.78;;;307.30;2304.00;;;;;;5074118;28;20020;-69
2023/04/03 09:33:21;;;;;;;5.57;3.00;;;307.20;2304.00;;;;;;5074140;28;20021;-69
2023/04/03 09:35:48;;;;;;;5.22;3.25;;;307.20;2304.00;;;;;;5074021;28;20017;-70
2023/04/03 09:38:16;;;;;;;4.60;2.50;;;307.20;2304.00;;;;;;5074127;28;20071;-70
2023/04/03 09:40:47;;;;;;;4.95;3.10;;;307.20;2304.00;;;;;;5073505;28;20489;-69
2023/04/03 09:43:25;;;;;;;6.72;2.97;;;307.20;2304.00;;;;;;5073807;28;20024;-70
2023/04/03 09:45:52;;;;;;;6.75;3.17;;;307.30;2304.00;;;;;;5073576;28;20024;-69
2023/04/03 09:48:23;;;;;;;11.85;3.22;;;307.30;2304.00;;;;;;5072050;28;20551;-69
2023/04/03 09:51:01;;;;;;;5.57;3.47;;;307.30;2304.00;;;;;;5070450;28;20117;-69
2023/04/03 09:53:35;;;;;;;4.25;2.88;;;307.30;2304.00;;;;;;5069266;28;20028;-69
2023/04/03 09:56:03;;;;;;;4.78;3.13;;;307.20;2304.00;;;;;;5072738;28;20054;-77
2023/04/03 09:58:33;;;;;;;4.50;2.83;;;307.30;2304.00;;;;;;5073463;28;20027;-71
2023/04/03 10:01:01;;;;;;;6.88;3.10;;;307.20;2304.00;;;;;;5071485;28;20163;-69
2023/04/03 10:03:34;;;;;;;5.63;2.80;;;307.30;2304.00;;;;;;5073359;28;20024;-70
2023/04/03 10:06:01;;;;;;;9.82;3.38;;;307.40;2304.00;;;;;;5072270;28;20032;-70
2023/04/03 10:08:28;;;;;;;5.28;3.17;;;307.50;2304.00;;;;;;5072769;28;20107;-70
2023/04/03 10:11:06;;;;;;;5.15;3.17;;;307.50;2304.00;;;;;;5067403;28;20159;-70
2023/04/03 10:13:32;;;;;;;6.03;3.17;;;307.50;2304.00;;;;;;5073081;28;20020;-71
2023/04/03 10:16:12;;;;;;;5.43;3.08;;;307.50;2304.00;;;;;;5073155;28;20036;-70
2023/04/03 10:18:44;;;;;;;5.38;3.22;;;307.60;2304.00;;;;;;5072835;28;20028;-71
2023/04/03 10:21:42;;;;;;;6.75;3.78;;;307.60;2304.00;;;;;;5069177;28;20176;-70
2023/04/03 10:24:16;;;;;;;9.13;4.13;;;307.70;2304.00;;;;;;5055316;28;20653;-71
2023/04/03 10:27:00;;;;;;;9.02;3.25;;;;;;;;;;5054397;28;20028;-70
2023/04/03 10:29:35;;;;;;;5.28;3.50;;;307.80;2304.00;;;;;;5059367;28;20111;-69
2023/04/03 10:32:38;;;;;;;6.03;3.28;;;307.90;2304.00;;;;;;5056292;28;20032;-70
2023/04/03 10:35:13;;;;;;;5.15;3.03;;;307.90;2304.00;;;;;;5051864;28;20048;-70
2023/04/03 10:37:54;;;;;;;6.10;3.45;;;307.90;2304.00;;;;;;5052234;28;20576;-70
2023/04/03 10:40:32;;;;;;;8.48;4.07;;;308.00;2304.00;;;;;;5047921;28;20122;-70
2023/04/03 10:43:12;;;;;;;6.55;3.60;;;308.10;2304.00;;;;;;5049500;28;20021;-69
2023/04/03 10:45:53;;;;;;;5.55;2.75;;;308.10;2304.00;;;;;;5051321;28;20067;-70
2023/04/03 10:48:39;;;;;;;6.10;3.08;;;308.00;2304.00;;;;;;5059880;28;20036;-70
2023/04/03 10:51:31;;;;;;;7.20;3.53;;;308.00;2304.00;;;;;;5058971;28;20033;-70
2023/04/03 10:54:02;;;;;;;7.43;3.17;;;332.80;2329.60;;;;;;5055708;28;20494;-70
2023/04/03 10:56:53;;;;;;;4.43;3.00;;;332.80;2329.60;;;;;;5053631;28;20135;-69
2023/04/03 10:59:53;;;;;;;5.22;3.35;;;332.90;2329.60;;;;;;5056414;28;20040;-69
2023/04/03 11:02:26;;;;;;;6.35;2.88;;;333.00;2329.60;;;;;;5010536;28;20068;-71
2023/04/03 11:05:02;;;;;;;5.03;3.17;;;333.00;2329.60;;;;;;5004803;28;20026;-69
2023/04/03 11:07:33;;;;;;;6.27;3.17;;;333.20;2329.60;;;;;;5010696;28;20072;-70
2023/04/03 11:10:05;;;;;;;5.63;2.88;;;333.20;2329.60;;;;;;5010461;28;20354;-72
2023/04/03 11:13:11;;;;;;;4.75;2.72;;;333.30;2329.60;;;;;;5010554;28;20559;-70
2023/04/03 11:15:37;;;;;;;10.25;2.92;;;333.30;2329.60;;;;;;4980762;28;20049;-80
2023/04/03 11:18:39;;;;;;;7.32;3.40;;;333.20;2329.60;;;;;;4972872;28;20030;-73
2023/04/03 11:21:16;;;;;;;5.90;3.03;;;333.20;2329.60;;;;;;4974599;28;20082;-80
2023/04/03 11:23:45;;;;;;;5.05;3.50;;;333.40;2329.60;;;;;;4977724;28;20232;-76
2023/04/03 11:26:15;;;;;;;4.60;2.60;;;333.50;2329.60;;;;;;4978380;28;20511;-70
2023/04/03 11:28:41;;;;;;;5.18;2.80;;;333.60;2329.60;;;;;;4981515;28;20035;-71
2023/04/03 11:31:35;;;;;;;5.80;2.50;;;333.70;2329.60;;;;;;4979390;28;20034;-71
2023/04/03 11:34:22;;;;;;;6.45;2.97;;;358.50;2329.60;;;;;;4925954;29;20524;-70
2023/04/03 11:37:00;;;;;;;6.78;3.17;;;358.70;2278.40;;;;;;4907373;29;20074;-71
2023/04/03 11:39:31;;;;;;;6.22;3.00;;;358.80;2176.00;;;;;;4949512;29;20042;-72
2023/04/03 11:42:24;;;;;;;5.22;3.20;;;359.20;2150.40;;;;;;4955995;29;20036;-70
2023/04/03 11:44:49;;;;;;;5.18;3.40;;;384.30;2073.60;;;;;;4950758;29;20035;-70
2023/04/03 11:47:49;;;;;;;8.13;3.72;;;384.20;2099.20;;;;;;4955400;29;20039;-70
2023/04/03 11:50:33;;;;;;;6.40;3.00;;;384.40;2124.80;;;;;;4951198;29;20054;-70
2023/04/03 11:53:27;;;;;;;7.93;2.90;;;384.70;2099.20;;;;;;5020858;28;20033;-69
2023/04/03 11:55:55;;;;;;;5.07;3.03;;;384.90;1971.20;;;;;;5028211;28;20045;-70
2023/04/03 11:58:29;;;;;;;4.78;2.60;;;409.80;2048.00;;;;;;5034106;28;20045;-70
2023/04/03 12:01:07;;;;;;;6.53;3.20;;;409.90;1971.20;;;;;;5033835;28;20506;-70
2023/04/03 12:03:45;;;;;;;4.80;3.08;;;410.20;2048.00;;;;;;5033429;28;20038;-70
2023/04/03 12:06:11;;;;;;;5.60;3.15;;;410.10;1945.60;;;;;;5033816;28;20029;-71
2023/04/03 12:08:40;;;;;;;5.47;3.38;;;410.20;1945.60;;;;;;5031757;28;20030;-70
2023/04/03 12:11:08;;;;;;;5.30;2.72;;;409.80;2022.40;;;;;;5054378;28;20039;-73
2023/04/03 12:13:55;;;;;;;7.88;2.58;;;410.40;1920.00;;;;;;5075684;28;20082;-71
2023/04/03 12:16:29;;;;;;;4.43;2.63;;;435.30;1817.60;;;;;;5064931;28;20114;-71
2023/04/03 12:19:00;;;;;;;7.85;3.40;;;410.50;1843.20;;;;;;5075238;28;20024;-70
2023/04/03 12:21:32;;;;;;;3.45;2.25;;;409.90;1920.00;;;;;;5073864;28;20048;-70
2023/04/03 12:24:03;;;;;;;2.83;1.70;;;409.70;1817.60;;;;;;5075406;28;20020;-70
2023/04/03 12:26:41;;;;;;;4.80;2.40;;;410.10;1817.60;;;;;;5073837;28;20074;-70
2023/04/03 12:29:33;;;;;;;4.03;2.55;;;410.50;1740.80;;;;;;5073945;28;20059;-69
2023/04/03 12:32:18;;;;;;;5.63;2.20;;;410.40;1766.40;;;;;;5075166;28;20021;-70